createdAt,value
2022-10-06T00:00:42.433Z,0.00
2022-10-06T00:01:42.441Z,0.00
2022-10-06T00:02:42.471Z,0.00
2022-10-06T00:03:42.386Z,0.00
2022-10-06T00:04:42.378Z,0.00
2022-10-06T00:05:42.378Z,0.00
2022-10-06T00:06:42.357Z,0.00
2022-10-06T00:07:42.347Z,0.00
2022-10-06T00:08:42.340Z,0.00
2022-10-06T00:09:42.331Z,0.00
2022-10-06T00:10:42.326Z,0.00
2022-10-06T00:11:42.299Z,0.00
2022-10-06T00:12:42.290Z,0.00
2022-10-06T00:13:42.286Z,0.00
2022-10-06T00:14:42.269Z,0.00
2022-10-06T00:15:42.299Z,0.00
2022-10-06T00:16:42.250Z,0.00
2022-10-06T00:17:42.241Z,0.00
2022-10-06T00:18:42.242Z,0.00
2022-10-06T00:19:42.222Z,0.00
2022-10-06T00:20:42.220Z,0.00
2022-10-06T00:21:42.199Z,0.00
2022-10-06T00:22:42.189Z,0.00
2022-10-06T00:23:42.176Z,0.00
2022-10-06T00:24:42.163Z,0.00
2022-10-06T00:25:42.164Z,0.00
2022-10-06T00:26:42.141Z,0.00
2022-10-06T00:27:42.136Z,0.00
2022-10-06T00:28:42.154Z,0.00
2022-10-06T00:29:42.113Z,0.00
2022-10-06T00:30:42.124Z,0.00
2022-10-06T00:31:42.098Z,0.00
2022-10-06T00:32:42.088Z,0.00
2022-10-06T00:33:42.086Z,0.00
2022-10-06T00:34:42.060Z,0.00
2022-10-06T00:35:42.067Z,0.00
2022-10-06T00:36:42.030Z,0.00
2022-10-06T00:37:42.028Z,0.00
2022-10-06T00:38:42.010Z,0.00
2022-10-06T00:39:42.010Z,0.00
2022-10-06T00:40:42.002Z,0.00
2022-10-06T00:41:41.981Z,0.00
2022-10-06T00:42:41.979Z,0.00
2022-10-06T00:43:41.971Z,0.00
2022-10-06T00:44:41.950Z,0.00
2022-10-06T00:45:41.951Z,0.00
2022-10-06T00:46:41.970Z,0.00
2022-10-06T00:47:41.922Z,0.00
2022-10-06T00:48:41.903Z,0.00
2022-10-06T00:49:41.904Z,0.00
2022-10-06T00:50:41.904Z,0.00
2022-10-06T00:51:41.884Z,0.00
2022-10-06T00:52:41.864Z,0.00
2022-10-06T00:53:41.854Z,0.00
2022-10-06T00:54:41.844Z,0.00
2022-10-06T00:55:41.855Z,0.00
2022-10-06T00:56:41.816Z,0.00
2022-10-06T00:57:41.817Z,0.00
2022-10-06T00:58:41.796Z,0.00
2022-10-06T00:59:41.788Z,0.00
2022-10-06T01:00:41.807Z,0.00
2022-10-06T01:01:41.805Z,0.00
2022-10-06T01:02:41.838Z,0.00
2022-10-06T01:03:41.748Z,0.00
2022-10-06T01:04:41.747Z,0.00
2022-10-06T01:05:41.731Z,0.00
2022-10-06T01:06:41.730Z,0.00
2022-10-06T01:07:41.720Z,0.00
2022-10-06T01:08:41.700Z,0.00
2022-10-06T01:09:41.681Z,0.00
2022-10-06T01:10:41.671Z,0.00
2022-10-06T01:11:41.672Z,0.00
2022-10-06T01:12:41.651Z,0.00
2022-10-06T01:13:41.652Z,0.00
2022-10-06T01:14:41.633Z,0.00
2022-10-06T01:15:41.658Z,0.00
2022-10-06T01:16:41.624Z,0.00
2022-10-06T01:17:41.602Z,0.00
2022-10-06T01:18:41.594Z,0.00
2022-10-06T01:19:41.576Z,0.00
2022-10-06T01:20:41.585Z,0.00
2022-10-06T01:21:41.565Z,0.00
2022-10-06T01:22:41.564Z,0.00
2022-10-06T01:23:41.536Z,0.00
2022-10-06T01:24:41.526Z,0.00
2022-10-06T01:25:41.514Z,0.00
2022-10-06T01:26:41.537Z,0.00
2022-10-06T01:27:41.497Z,0.00
2022-10-06T01:28:41.572Z,0.00
2022-10-06T01:29:41.468Z,0.00
2022-10-06T01:30:41.525Z,0.00
2022-10-06T01:31:41.475Z,0.00
2022-10-06T01:32:41.440Z,0.00
2022-10-06T01:33:41.430Z,0.00
2022-10-06T01:34:41.420Z,0.00
2022-10-06T01:35:41.430Z,0.00
2022-10-06T01:36:41.412Z,0.00
2022-10-06T01:37:41.393Z,0.00
2022-10-06T01:38:41.381Z,0.00
2022-10-06T01:39:41.369Z,0.00
2022-10-06T01:40:41.353Z,0.00
2022-10-06T01:41:41.353Z,0.00
2022-10-06T01:42:41.342Z,0.00
2022-10-06T01:43:41.322Z,0.00
2022-10-06T01:44:41.313Z,0.00
2022-10-06T01:45:41.303Z,0.00
2022-10-06T01:46:41.352Z,0.00
2022-10-06T01:47:41.275Z,0.00
2022-10-06T01:48:41.283Z,0.00
2022-10-06T01:49:41.274Z,0.00
2022-10-06T01:50:41.255Z,0.00
2022-10-06T01:51:41.253Z,0.00
2022-10-06T01:52:41.233Z,0.00
2022-10-06T01:53:41.223Z,0.00
2022-10-06T01:54:41.214Z,0.00
2022-10-06T01:55:41.196Z,0.00
2022-10-06T01:56:41.198Z,0.00
2022-10-06T01:57:41.169Z,0.00
2022-10-06T01:58:41.168Z,0.00
2022-10-06T01:59:41.169Z,0.00
2022-10-06T02:00:41.151Z,0.00
2022-10-06T02:01:41.167Z,0.00
2022-10-06T02:02:41.130Z,0.00
2022-10-06T02:03:41.110Z,0.00
2022-10-06T02:04:41.102Z,0.00
2022-10-06T02:05:41.089Z,0.00
2022-10-06T02:06:41.142Z,0.00
2022-10-06T02:07:41.061Z,0.00
2022-10-06T02:08:41.066Z,0.00
2022-10-06T02:09:41.043Z,0.00
2022-10-06T02:10:41.041Z,0.00
2022-10-06T02:11:41.034Z,0.00
2022-10-06T02:12:41.015Z,0.00
2022-10-06T02:13:41.004Z,0.00
2022-10-06T02:14:40.994Z,0.00
2022-10-06T02:15:41.017Z,0.00
2022-10-06T02:16:40.987Z,0.00
2022-10-06T02:17:40.966Z,0.00
2022-10-06T02:18:40.955Z,0.00
2022-10-06T02:19:40.936Z,0.00
2022-10-06T02:20:40.928Z,0.00
2022-10-06T02:21:40.927Z,0.00
2022-10-06T02:22:40.909Z,0.00
2022-10-06T02:23:40.888Z,0.00
2022-10-06T02:24:40.889Z,0.00
2022-10-06T02:25:40.879Z,0.00
2022-10-06T02:26:40.889Z,0.00
2022-10-06T02:27:40.854Z,0.00
2022-10-06T02:28:40.914Z,0.00
2022-10-06T02:29:40.830Z,0.00
2022-10-06T02:30:40.821Z,0.00
2022-10-06T02:31:40.861Z,0.00
2022-10-06T02:32:40.801Z,0.00
2022-10-06T02:33:40.782Z,0.00
2022-10-06T02:34:40.772Z,0.00
2022-10-06T02:35:40.763Z,0.00
2022-10-06T02:36:40.772Z,0.00
2022-10-06T02:37:40.744Z,0.00
2022-10-06T02:38:40.741Z,0.00
2022-10-06T02:39:40.723Z,0.00
2022-10-06T02:40:40.716Z,0.00
2022-10-06T02:41:40.713Z,0.00
2022-10-06T02:42:40.695Z,0.00
2022-10-06T02:43:40.693Z,0.00
2022-10-06T02:44:40.677Z,0.00
2022-10-06T02:45:40.666Z,0.00
2022-10-06T02:46:40.719Z,0.00
2022-10-06T02:47:40.637Z,0.00
2022-10-06T02:48:40.636Z,0.00
2022-10-06T02:49:40.616Z,0.00
2022-10-06T02:50:40.609Z,0.00
2022-10-06T02:51:40.629Z,0.00
2022-10-06T02:52:40.588Z,0.00
2022-10-06T02:53:40.578Z,0.00
2022-10-06T02:54:40.579Z,0.00
2022-10-06T02:55:40.558Z,0.00
2022-10-06T02:56:40.561Z,0.00
2022-10-06T02:57:40.567Z,0.00
2022-10-06T02:58:40.538Z,0.00
2022-10-06T02:59:40.536Z,0.00
2022-10-06T03:00:40.502Z,0.00
2022-10-06T03:01:40.595Z,0.00
2022-10-06T03:02:40.573Z,0.00
2022-10-06T03:03:40.483Z,0.00
2022-10-06T03:04:40.472Z,0.00
2022-10-06T03:05:40.453Z,0.00
2022-10-06T03:06:40.464Z,0.00
2022-10-06T03:07:40.433Z,0.00
2022-10-06T03:08:40.426Z,0.00
2022-10-06T03:09:40.414Z,0.00
2022-10-06T03:10:40.405Z,0.00
2022-10-06T03:11:40.406Z,0.00
2022-10-06T03:12:40.387Z,0.00
2022-10-06T03:13:40.368Z,0.00
2022-10-06T03:14:40.366Z,0.00
2022-10-06T03:15:40.351Z,0.00
2022-10-06T03:16:40.357Z,0.00
2022-10-06T03:17:40.327Z,0.00
2022-10-06T03:18:40.318Z,0.00
2022-10-06T03:19:40.309Z,0.00
2022-10-06T03:20:40.301Z,0.00
2022-10-06T03:21:40.311Z,0.00
2022-10-06T03:22:40.323Z,0.00
2022-10-06T03:23:40.260Z,0.00
2022-10-06T03:24:40.263Z,0.00
2022-10-06T03:25:40.249Z,0.00
2022-10-06T03:26:40.252Z,0.00
2022-10-06T03:27:40.231Z,0.00
2022-10-06T03:28:40.378Z,0.00
2022-10-06T03:29:40.202Z,0.00
2022-10-06T03:30:40.192Z,0.00
2022-10-06T03:31:40.317Z,0.00
2022-10-06T03:32:40.172Z,0.00
2022-10-06T03:33:40.163Z,0.00
2022-10-06T03:34:40.153Z,0.00
2022-10-06T03:35:40.143Z,0.00
2022-10-06T03:36:40.144Z,0.00
2022-10-06T03:37:40.114Z,0.00
2022-10-06T03:38:40.114Z,0.00
2022-10-06T03:39:40.096Z,0.00
2022-10-06T03:40:40.086Z,0.00
2022-10-06T03:41:40.088Z,0.00
2022-10-06T03:42:40.068Z,0.00
2022-10-06T03:43:40.047Z,0.00
2022-10-06T03:44:40.048Z,0.00
2022-10-06T03:45:40.028Z,0.00
2022-10-06T03:46:40.085Z,0.00
2022-10-06T03:47:40.009Z,0.00
2022-10-06T03:48:40.010Z,0.00
2022-10-06T03:49:40.000Z,0.00
2022-10-06T03:50:39.990Z,0.00
2022-10-06T03:51:39.988Z,0.00
2022-10-06T03:52:39.960Z,0.00
2022-10-06T03:53:39.958Z,0.00
2022-10-06T03:54:39.941Z,0.00
2022-10-06T03:55:39.961Z,0.00
2022-10-06T03:56:39.932Z,0.00
2022-10-06T03:57:39.903Z,0.00
2022-10-06T03:58:39.915Z,0.00
2022-10-06T03:59:39.882Z,0.00
2022-10-06T04:00:39.891Z,0.00
2022-10-06T04:01:39.945Z,0.00
2022-10-06T04:02:39.853Z,0.00
2022-10-06T04:03:39.845Z,0.00
2022-10-06T04:04:39.834Z,0.00
2022-10-06T04:05:39.822Z,0.00
2022-10-06T04:06:39.826Z,0.00
2022-10-06T04:07:39.810Z,0.00
2022-10-06T04:08:39.797Z,0.00
2022-10-06T04:09:39.776Z,0.00
2022-10-06T04:10:39.774Z,0.00
2022-10-06T04:11:39.766Z,0.00
2022-10-06T04:12:39.758Z,0.00
2022-10-06T04:13:39.737Z,0.00
2022-10-06T04:14:39.748Z,0.00
2022-10-06T04:15:39.717Z,0.00
2022-10-06T04:16:39.778Z,0.00
2022-10-06T04:17:39.698Z,0.00
2022-10-06T04:18:39.681Z,0.00
2022-10-06T04:19:39.669Z,0.00
2022-10-06T04:20:39.660Z,0.00
2022-10-06T04:21:39.672Z,0.00
2022-10-06T04:22:39.649Z,0.00
2022-10-06T04:23:39.634Z,0.00
2022-10-06T04:24:39.626Z,0.00
2022-10-06T04:25:39.603Z,0.00
2022-10-06T04:26:39.611Z,0.00
2022-10-06T04:27:39.582Z,0.00
2022-10-06T04:28:39.639Z,0.00
2022-10-06T04:29:39.564Z,0.00
2022-10-06T04:30:39.562Z,0.00
2022-10-06T04:31:39.602Z,0.00
2022-10-06T04:32:39.538Z,0.00
2022-10-06T04:33:39.605Z,0.00
2022-10-06T04:34:39.523Z,0.00
2022-10-06T04:35:39.497Z,0.00
2022-10-06T04:36:39.509Z,0.00
2022-10-06T04:37:39.484Z,0.00
2022-10-06T04:38:39.477Z,0.00
2022-10-06T04:39:39.457Z,0.00
2022-10-06T04:40:39.457Z,0.00
2022-10-06T04:41:39.448Z,0.00
2022-10-06T04:42:39.427Z,0.00
2022-10-06T04:43:39.417Z,0.00
2022-10-06T04:44:39.409Z,0.00
2022-10-06T04:45:39.417Z,0.00
2022-10-06T04:46:44.170Z,0.00
2022-10-06T04:47:40.370Z,0.00
2022-10-06T04:48:39.370Z,0.00
2022-10-06T04:49:39.349Z,0.00
2022-10-06T04:50:39.341Z,0.00
2022-10-06T04:51:39.352Z,0.00
2022-10-06T04:52:39.331Z,0.00
2022-10-06T04:53:39.329Z,0.00
2022-10-06T04:54:39.304Z,0.00
2022-10-06T04:55:39.292Z,0.00
2022-10-06T04:56:39.302Z,0.00
2022-10-06T04:57:39.275Z,0.00
2022-10-06T04:58:39.263Z,0.00
2022-10-06T04:59:39.254Z,0.00
2022-10-06T05:00:39.289Z,0.00
2022-10-06T05:01:39.258Z,0.00
2022-10-06T05:02:39.329Z,0.00
2022-10-06T05:03:39.214Z,0.00
2022-10-06T05:04:39.196Z,0.00
2022-10-06T05:05:39.190Z,0.00
2022-10-06T05:06:39.195Z,0.00
2022-10-06T05:07:39.129Z,1.00
2022-10-06T05:08:39.158Z,0.00
2022-10-06T05:09:39.145Z,0.00
2022-10-06T05:10:39.138Z,0.00
2022-10-06T05:11:39.137Z,0.00
2022-10-06T05:12:39.117Z,0.00
2022-10-06T05:13:39.069Z,1.00
2022-10-06T05:14:39.089Z,0.00
2022-10-06T05:15:39.079Z,0.00
2022-10-06T05:16:39.173Z,0.00
2022-10-06T05:17:39.020Z,1.00
2022-10-06T05:18:38.992Z,1.00
2022-10-06T05:19:38.993Z,1.00
2022-10-06T05:20:38.982Z,4.00
2022-10-06T05:21:38.981Z,8.00
2022-10-06T05:22:38.951Z,5.00
2022-10-06T05:23:38.941Z,6.00
2022-10-06T05:24:38.934Z,5.00
2022-10-06T05:25:38.932Z,3.00
2022-10-06T05:26:38.931Z,6.00
2022-10-06T05:27:38.908Z,9.00
2022-10-06T05:28:38.910Z,10.00
2022-10-06T05:29:38.889Z,9.00
2022-10-06T05:30:38.882Z,12.00
2022-10-06T05:31:39.132Z,14.00
2022-10-06T05:32:38.850Z,17.00
2022-10-06T05:33:38.845Z,15.00
2022-10-06T05:34:38.824Z,13.00
2022-10-06T05:35:38.818Z,20.00
2022-10-06T05:36:38.815Z,20.00
2022-10-06T05:37:38.802Z,22.00
2022-10-06T05:38:38.777Z,26.00
2022-10-06T05:39:38.779Z,28.00
2022-10-06T05:40:38.769Z,32.00
2022-10-06T05:41:38.770Z,28.00
2022-10-06T05:42:38.738Z,32.00
2022-10-06T05:43:38.737Z,36.00
2022-10-06T05:44:38.720Z,40.00
2022-10-06T05:45:38.761Z,42.00
2022-10-06T05:46:38.710Z,43.00
2022-10-06T05:47:38.690Z,44.00
2022-10-06T05:48:38.681Z,45.00
2022-10-06T05:49:38.672Z,49.00
2022-10-06T05:50:38.661Z,52.00
2022-10-06T05:51:38.665Z,56.00
2022-10-06T05:52:38.631Z,56.00
2022-10-06T05:53:38.622Z,58.00
2022-10-06T05:54:38.612Z,62.00
2022-10-06T05:55:38.604Z,63.00
2022-10-06T05:56:38.606Z,63.00
2022-10-06T05:57:38.603Z,65.00
2022-10-06T05:58:38.573Z,67.00
2022-10-06T05:59:38.564Z,67.00
2022-10-06T06:00:38.553Z,71.00
2022-10-06T06:01:38.581Z,71.00
2022-10-06T06:02:38.607Z,77.00
2022-10-06T06:03:38.525Z,76.00
2022-10-06T06:04:38.505Z,77.00
2022-10-06T06:05:38.497Z,85.00
2022-10-06T06:06:38.497Z,98.00
2022-10-06T06:07:38.487Z,65.00
2022-10-06T06:08:38.467Z,90.00
2022-10-06T06:09:38.456Z,101.00
2022-10-06T06:10:38.441Z,113.00
2022-10-06T06:11:38.448Z,119.00
2022-10-06T06:12:38.419Z,120.00
2022-10-06T06:13:38.419Z,120.00
2022-10-06T06:14:38.399Z,120.00
2022-10-06T06:15:38.399Z,125.00
2022-10-06T06:16:38.409Z,123.00
2022-10-06T06:17:38.383Z,124.00
2022-10-06T06:18:38.360Z,134.00
2022-10-06T06:19:38.356Z,152.00
2022-10-06T06:20:38.341Z,159.00
2022-10-06T06:21:38.355Z,156.00
2022-10-06T06:22:38.312Z,151.00
2022-10-06T06:23:38.321Z,141.00
2022-10-06T06:24:38.292Z,138.00
2022-10-06T06:25:38.325Z,136.00
2022-10-06T06:26:38.292Z,132.00
2022-10-06T06:27:38.264Z,118.00
2022-10-06T06:28:38.301Z,104.00
2022-10-06T06:29:38.245Z,97.00
2022-10-06T06:30:38.235Z,98.00
2022-10-06T06:31:38.318Z,108.00
2022-10-06T06:32:38.234Z,133.00
2022-10-06T06:33:38.208Z,167.00
2022-10-06T06:34:38.187Z,209.00
2022-10-06T06:35:38.188Z,231.00
2022-10-06T06:36:38.188Z,242.00
2022-10-06T06:37:38.157Z,246.00
2022-10-06T06:38:38.146Z,255.00
2022-10-06T06:39:38.140Z,265.00
2022-10-06T06:40:38.127Z,264.00
2022-10-06T06:41:38.158Z,257.00
2022-10-06T06:42:38.114Z,250.00
2022-10-06T06:43:38.106Z,247.00
2022-10-06T06:44:38.089Z,251.00
2022-10-06T06:45:38.117Z,248.00
2022-10-06T06:46:38.071Z,250.00
2022-10-06T06:47:38.057Z,245.00
2022-10-06T06:48:38.050Z,246.00
2022-10-06T06:49:38.040Z,246.00
2022-10-06T06:50:38.020Z,398.00
2022-10-06T06:51:38.021Z,96.00
2022-10-06T06:52:38.015Z,246.00
2022-10-06T06:53:37.992Z,250.00
2022-10-06T06:54:37.981Z,257.00
2022-10-06T06:55:37.972Z,258.00
2022-10-06T06:56:37.972Z,260.00
2022-10-06T06:57:37.958Z,263.00
2022-10-06T06:58:37.934Z,273.00
2022-10-06T06:59:37.935Z,286.00
2022-10-06T07:00:37.914Z,291.00
2022-10-06T07:01:38.025Z,292.00
2022-10-06T07:02:37.894Z,288.00
2022-10-06T07:03:56.683Z,286.00
2022-10-06T07:04:38.878Z,296.00
2022-10-06T07:05:37.866Z,298.00
2022-10-06T07:06:37.866Z,312.00
2022-10-06T07:07:37.847Z,337.00
2022-10-06T07:08:37.853Z,362.00
2022-10-06T07:09:37.817Z,380.00
2022-10-06T07:10:37.817Z,380.00
2022-10-06T07:11:37.824Z,443.00
2022-10-06T07:12:37.788Z,409.00
2022-10-06T07:13:37.778Z,276.00
2022-10-06T07:14:37.768Z,213.00
2022-10-06T07:15:37.782Z,215.00
2022-10-06T07:16:37.759Z,215.00
2022-10-06T07:17:37.740Z,215.00
2022-10-06T07:18:37.720Z,221.00
2022-10-06T07:19:37.719Z,228.00
2022-10-06T07:20:37.700Z,225.00
2022-10-06T07:21:37.708Z,223.00
2022-10-06T07:22:37.682Z,223.00
2022-10-06T07:23:37.672Z,226.00
2022-10-06T07:24:37.662Z,232.00
2022-10-06T07:25:37.652Z,232.00
2022-10-06T07:26:37.653Z,232.00
2022-10-06T07:27:37.641Z,207.00
2022-10-06T07:28:37.642Z,275.00
2022-10-06T07:29:37.614Z,248.00
2022-10-06T07:30:40.713Z,241.00
2022-10-06T07:31:37.677Z,237.00
2022-10-06T07:32:37.584Z,238.00
2022-10-06T07:33:37.577Z,253.00
2022-10-06T07:34:37.594Z,273.00
2022-10-06T07:35:37.546Z,218.00
2022-10-06T07:36:37.647Z,242.00
2022-10-06T07:37:37.528Z,259.00
2022-10-06T07:38:37.517Z,267.00
2022-10-06T07:39:37.507Z,248.00
2022-10-06T07:40:40.244Z,271.00
2022-10-06T07:41:38.499Z,265.00
2022-10-06T07:42:37.469Z,230.00
2022-10-06T07:43:37.461Z,285.00
2022-10-06T07:44:37.448Z,298.00
2022-10-06T07:45:37.510Z,279.00
2022-10-06T07:46:37.419Z,257.00
2022-10-06T07:47:37.450Z,251.00
2022-10-06T07:48:37.409Z,269.00
2022-10-06T07:49:37.399Z,209.00
2022-10-06T07:50:37.392Z,337.00
2022-10-06T07:51:37.373Z,283.00
2022-10-06T07:52:37.375Z,276.00
2022-10-06T07:53:37.352Z,312.00
2022-10-06T07:54:37.342Z,298.00
2022-10-06T07:55:37.332Z,236.00
2022-10-06T07:56:37.324Z,363.00
2022-10-06T07:57:37.336Z,286.00
2022-10-06T07:58:37.295Z,276.00
2022-10-06T07:59:37.295Z,251.00
2022-10-06T08:00:37.281Z,301.00
2022-10-06T08:01:37.288Z,303.00
2022-10-06T08:02:37.291Z,452.00
2022-10-06T08:03:37.247Z,457.00
2022-10-06T08:04:37.239Z,327.00
2022-10-06T08:05:37.237Z,339.00
2022-10-06T08:06:37.215Z,225.00
2022-10-06T08:07:37.226Z,174.00
2022-10-06T08:08:37.197Z,348.00
2022-10-06T08:09:37.199Z,635.00
2022-10-06T08:10:37.168Z,554.00
2022-10-06T08:11:37.159Z,680.00
2022-10-06T08:12:37.236Z,624.00
2022-10-06T08:13:37.140Z,730.00
2022-10-06T08:14:37.131Z,584.00
2022-10-06T08:15:37.120Z,429.00
2022-10-06T08:16:37.180Z,213.00
2022-10-06T08:17:37.115Z,447.00
2022-10-06T08:18:52.306Z,813.00
2022-10-06T08:19:38.072Z,906.00
2022-10-06T08:20:37.107Z,602.00
2022-10-06T08:21:37.060Z,591.00
2022-10-06T08:22:37.052Z,585.00
2022-10-06T08:23:37.042Z,514.00
2022-10-06T08:25:01.087Z,510.00
2022-10-06T08:25:38.014Z,483.00
2022-10-06T08:26:37.004Z,626.00
2022-10-06T08:27:37.007Z,809.00
2022-10-06T08:28:37.026Z,665.00
2022-10-06T08:29:36.975Z,780.00
2022-10-06T08:30:36.964Z,854.00
2022-10-06T08:31:37.043Z,645.00
2022-10-06T08:32:36.956Z,613.00
2022-10-06T08:33:36.938Z,630.00
2022-10-06T08:34:36.992Z,803.00
2022-10-06T08:35:36.911Z,452.00
2022-10-06T08:36:36.899Z,559.00
2022-10-06T08:37:36.910Z,543.00
2022-10-06T08:38:36.877Z,554.00
2022-10-06T08:39:36.868Z,553.00
2022-10-06T08:40:36.858Z,484.00
2022-10-06T08:41:36.918Z,630.00
2022-10-06T08:42:36.859Z,641.00
2022-10-06T08:43:36.839Z,675.00
2022-10-06T08:44:36.829Z,872.00
2022-10-06T08:45:38.831Z,880.00
2022-10-06T08:46:36.793Z,735.00
2022-10-06T08:47:36.802Z,670.00
2022-10-06T08:48:36.787Z,696.00
2022-10-06T08:49:36.776Z,745.00
2022-10-06T08:50:36.751Z,715.00
2022-10-06T08:51:36.752Z,834.00
2022-10-06T08:52:36.745Z,654.00
2022-10-06T08:53:36.723Z,767.00
2022-10-06T08:54:36.713Z,710.00
2022-10-06T08:55:36.704Z,926.00
2022-10-06T08:56:36.684Z,463.00
2022-10-06T08:57:36.697Z,613.00
2022-10-06T08:58:36.665Z,699.00
2022-10-06T08:59:36.670Z,639.00
2022-10-06T09:00:36.648Z,821.00
2022-10-06T09:01:36.773Z,565.00
2022-10-06T09:02:36.677Z,549.00
2022-10-06T09:03:36.616Z,816.00
2022-10-06T09:04:36.597Z,805.00
2022-10-06T09:05:36.597Z,453.00
2022-10-06T09:06:36.597Z,986.00
2022-10-06T09:07:36.576Z,874.00
2022-10-06T09:08:36.559Z,1122.00
2022-10-06T09:09:36.559Z,1084.00
2022-10-06T09:10:36.548Z,1026.00
2022-10-06T09:11:36.538Z,572.00
2022-10-06T09:12:36.534Z,667.00
2022-10-06T09:13:36.511Z,801.00
2022-10-06T09:14:36.491Z,827.00
2022-10-06T09:15:36.493Z,918.00
2022-10-06T09:16:36.471Z,1253.00
2022-10-06T09:17:36.482Z,1154.00
2022-10-06T09:19:03.495Z,732.00
2022-10-06T09:19:37.446Z,718.00
2022-10-06T09:20:36.578Z,984.00
2022-10-06T09:21:36.424Z,613.00
2022-10-06T09:22:36.430Z,364.00
2022-10-06T09:23:36.406Z,796.00
2022-10-06T09:24:36.453Z,879.00
2022-10-06T09:25:36.377Z,597.00
2022-10-06T09:26:36.365Z,692.00
2022-10-06T09:27:36.402Z,622.00
2022-10-06T09:28:36.402Z,634.00
2022-10-06T09:29:36.337Z,885.00
2022-10-06T09:30:36.316Z,1088.00
2022-10-06T09:31:36.416Z,238.00
2022-10-06T09:32:36.319Z,602.00
2022-10-06T09:33:36.288Z,703.00
2022-10-06T09:34:36.277Z,651.00
2022-10-06T09:35:36.270Z,716.00
2022-10-06T09:36:36.260Z,1059.00
2022-10-06T09:37:36.270Z,737.00
2022-10-06T09:38:36.240Z,698.00
2022-10-06T09:39:36.230Z,1055.00
2022-10-06T09:40:36.224Z,1491.00
2022-10-06T09:41:36.201Z,690.00
2022-10-06T09:42:36.209Z,1318.00
2022-10-06T09:43:36.182Z,333.00
2022-10-06T09:44:36.173Z,1585.00
2022-10-06T09:45:36.162Z,959.00
2022-10-06T09:46:36.165Z,314.00
2022-10-06T09:47:36.153Z,1020.00
2022-10-06T09:48:36.134Z,690.00
2022-10-06T09:49:36.113Z,858.00
2022-10-06T09:50:36.113Z,1210.00
2022-10-06T09:51:36.094Z,1427.00
2022-10-06T09:52:36.097Z,320.00
2022-10-06T09:53:37.771Z,804.00
2022-10-06T09:54:36.097Z,1163.00
2022-10-06T09:55:36.059Z,731.00
2022-10-06T09:56:36.045Z,904.00
2022-10-06T09:57:36.048Z,993.00
2022-10-06T09:58:36.017Z,736.00
2022-10-06T09:59:40.004Z,989.00
2022-10-06T10:00:36.135Z,914.00
2022-10-06T10:01:35.988Z,871.00
2022-10-06T10:02:36.043Z,854.00
2022-10-06T10:03:35.961Z,968.00
2022-10-06T10:04:35.961Z,1321.00
2022-10-06T10:05:35.945Z,2008.00
2022-10-06T10:06:35.934Z,3541.00
2022-10-06T10:07:35.930Z,5213.00
2022-10-06T10:08:35.954Z,6567.00
2022-10-06T10:09:35.903Z,6391.00
2022-10-06T10:10:35.891Z,7539.00
2022-10-06T10:11:35.884Z,7988.00
2022-10-06T10:12:35.892Z,7976.00
2022-10-06T10:13:35.874Z,8061.00
2022-10-06T10:14:35.854Z,8250.00
2022-10-06T10:15:35.835Z,8653.00
2022-10-06T10:16:35.883Z,9144.00
2022-10-06T10:17:35.836Z,8948.00
2022-10-06T10:18:35.816Z,8909.00
2022-10-06T10:19:35.795Z,8823.00
2022-10-06T10:20:35.786Z,8557.00
2022-10-06T10:21:35.779Z,9306.00
2022-10-06T10:22:35.778Z,9344.00
2022-10-06T10:23:35.747Z,9164.00
2022-10-06T10:24:35.749Z,9315.00
2022-10-06T10:25:35.729Z,9619.00
2022-10-06T10:26:35.719Z,9547.00
2022-10-06T10:27:35.719Z,10922.00
2022-10-06T10:28:35.734Z,8461.00
2022-10-06T10:29:35.701Z,8928.00
2022-10-06T10:30:35.681Z,8868.00
2022-10-06T10:31:35.739Z,10159.00
2022-10-06T10:32:35.682Z,8327.00
2022-10-06T10:33:35.642Z,9602.00
2022-10-06T10:34:35.642Z,10592.00
2022-10-06T10:35:35.624Z,10900.00
2022-10-06T10:36:35.632Z,10097.00
2022-10-06T10:37:35.622Z,8865.00
2022-10-06T10:38:35.595Z,10985.00
2022-10-06T10:39:35.584Z,2878.00
2022-10-06T10:40:35.578Z,1320.00
2022-10-06T10:41:35.575Z,9472.00
2022-10-06T10:42:35.574Z,11138.00
2022-10-06T10:43:35.536Z,1004.00
2022-10-06T10:44:35.648Z,2243.00
2022-10-06T10:45:35.530Z,10523.00
2022-10-06T10:46:35.553Z,9323.00
2022-10-06T10:47:35.508Z,10295.00
2022-10-06T10:48:35.499Z,9593.00
2022-10-06T10:49:35.480Z,9601.00
2022-10-06T10:50:35.490Z,9857.00
2022-10-06T10:51:35.460Z,8440.00
2022-10-06T10:52:35.474Z,9111.00
2022-10-06T10:53:37.618Z,9101.00
2022-10-06T10:54:35.440Z,10202.00
2022-10-06T10:55:35.424Z,9434.00
2022-10-06T10:56:35.415Z,9745.00
2022-10-06T10:57:35.413Z,9890.00
2022-10-06T10:58:35.393Z,9908.00
2022-10-06T10:59:35.374Z,9836.00
2022-10-06T11:00:35.481Z,9937.00
2022-10-06T11:01:35.413Z,10037.00
2022-10-06T11:02:35.365Z,9948.00
2022-10-06T11:03:35.336Z,10152.00
2022-10-06T11:04:35.334Z,9573.00
2022-10-06T11:05:35.317Z,10068.00
2022-10-06T11:06:35.308Z,10153.00
2022-10-06T11:07:35.311Z,9902.00
2022-10-06T11:08:35.288Z,10036.00
2022-10-06T11:09:35.278Z,10101.00
2022-10-06T11:10:35.272Z,9814.00
2022-10-06T11:11:35.254Z,10142.00
2022-10-06T11:12:35.261Z,10324.00
2022-10-06T11:13:35.230Z,10289.00
2022-10-06T11:14:35.233Z,10149.00
2022-10-06T11:15:35.216Z,10066.00
2022-10-06T11:16:35.247Z,10155.00
2022-10-06T11:17:35.204Z,10127.00
2022-10-06T11:18:35.184Z,10148.00
2022-10-06T11:19:35.172Z,10209.00
2022-10-06T11:20:35.163Z,10088.00
2022-10-06T11:21:35.154Z,10196.00
2022-10-06T11:22:35.156Z,10208.00
2022-10-06T11:23:35.125Z,10255.00
2022-10-06T11:24:35.138Z,10398.00
2022-10-06T11:25:35.398Z,9811.00
2022-10-06T11:26:35.112Z,10162.00
2022-10-06T11:27:35.110Z,11908.00
2022-10-06T11:28:35.102Z,13485.00
2022-10-06T11:29:35.075Z,2541.00
2022-10-06T11:30:35.067Z,6488.00
2022-10-06T11:31:35.096Z,10287.00
2022-10-06T11:32:35.109Z,10436.00
2022-10-06T11:33:35.031Z,10306.00
2022-10-06T11:34:35.022Z,10232.00
2022-10-06T11:35:35.009Z,9998.00
2022-10-06T11:36:35.035Z,10396.00
2022-10-06T11:37:35.002Z,10264.00
2022-10-06T11:38:34.987Z,10399.00
2022-10-06T11:39:34.972Z,10222.00
2022-10-06T11:40:34.964Z,10367.00
2022-10-06T11:41:34.946Z,10354.00
2022-10-06T11:42:34.956Z,10247.00
2022-10-06T11:43:34.926Z,10103.00
2022-10-06T11:44:34.927Z,10115.00
2022-10-06T11:45:34.966Z,10196.00
2022-10-06T11:46:35.783Z,10383.00
2022-10-06T11:47:36.240Z,10319.00
2022-10-06T11:48:34.898Z,10157.00
2022-10-06T11:49:34.868Z,10188.00
2022-10-06T11:50:34.859Z,9993.00
2022-10-06T11:51:34.850Z,10120.00
2022-10-06T11:52:34.859Z,10322.00
2022-10-06T11:53:34.834Z,10138.00
2022-10-06T11:54:34.829Z,10113.00
2022-10-06T11:55:34.812Z,10109.00
2022-10-06T11:56:34.804Z,10050.00
2022-10-06T11:57:34.800Z,10247.00
2022-10-06T11:58:42.258Z,9947.00
2022-10-06T11:59:35.765Z,10057.00
2022-10-06T12:00:34.775Z,10152.00
2022-10-06T12:01:34.879Z,10205.00
2022-10-06T12:02:34.872Z,9979.00
2022-10-06T12:03:34.746Z,10206.00
2022-10-06T12:04:34.719Z,10223.00
2022-10-06T12:05:55.856Z,10377.00
2022-10-06T12:06:35.698Z,10109.00
2022-10-06T12:07:34.697Z,9939.00
2022-10-06T12:08:34.679Z,9994.00
2022-10-06T12:09:34.666Z,10103.00
2022-10-06T12:10:34.705Z,10245.00
2022-10-06T12:11:34.648Z,10023.00
2022-10-06T12:12:34.650Z,9958.00
2022-10-06T12:17:35.593Z,9854.00
2022-10-06T12:18:34.573Z,11127.00
2022-10-06T12:19:34.563Z,9194.00
2022-10-06T12:20:34.553Z,9519.00
2022-10-06T12:21:34.544Z,9483.00
2022-10-06T12:22:34.555Z,9218.00
2022-10-06T12:23:34.537Z,9838.00
2022-10-06T12:24:34.516Z,8397.00
2022-10-06T12:25:34.506Z,1597.00
2022-10-06T12:26:34.496Z,1388.00
2022-10-06T12:27:34.500Z,2254.00
2022-10-06T12:28:34.538Z,700.00
2022-10-06T12:29:34.459Z,481.00
2022-10-06T12:30:34.492Z,524.00
2022-10-06T12:31:34.459Z,291.00
2022-10-06T12:32:34.449Z,627.00
2022-10-06T12:33:34.419Z,358.00
2022-10-06T12:34:34.410Z,514.00
2022-10-06T12:35:34.401Z,512.00
2022-10-06T12:36:34.392Z,420.00
2022-10-06T12:37:34.402Z,492.00
2022-10-06T12:38:34.384Z,310.00
2022-10-06T12:39:34.362Z,438.00
2022-10-06T12:40:34.357Z,389.00
2022-10-06T12:41:34.335Z,390.00
2022-10-06T12:42:34.347Z,331.00
2022-10-06T12:43:34.315Z,431.00
2022-10-06T12:44:34.306Z,433.00
2022-10-06T12:45:34.296Z,444.00
2022-10-06T12:46:34.325Z,446.00
2022-10-06T12:47:34.288Z,447.00